map of SAW home
SAW - Airport
Location
City:  Istanbul, Istanbul, Turkey
Name:Sabiha Gökçen International Airport
ICAO:LTFJ
IATA:SAW

Details
Type:Airport (Aerodrome, Airfield)
Use:Public/Civil, International (customs port of entry)
Latitude:40°53'55"N (40.898553)
Longitude:29°18'33"E (29.309219)
Datum:WGS 1984
Elevation:312 ft (95 m)
Variation:5.47°E (WMM2015 magnetic declination)
0.10° annual change
Runways:1
Longest:9843 × 148 ft (3000 × 45 m), paved

Time
Time Zone:UTC+3
Local Time:

Weather
METAR:LTFJ 140150Z VRB01KT CAVOK 10/07 Q1014 NOSIG RMK RWY24 00000KT
TAF:LTFJ 131640Z 1318/1418 VRB02KT CAVOK
BECMG 1406/1409 23012KT SCT035 BKN100 PROB30
TEMPO 1411/1415 -TSRA FEW020CB BKN030

Related Locations
Nearby:
Farthest:RVV: 11245 mi / 18097 km
Raivavae, Tubuai Islands, Austral Islands, PF

Find:

   beyond  
but within

Other Information
Maps:
NOTAMs:
Links:
Sources:

  
flag of Turkey   

Sectional Chart

Flight Planning
at skyvector.com

Satellite Image

Google Maps Satellite view

 

Copyright © 2004-2017 Karl L. Swartz. All rights reserved.
The Great Circle Mapper name and logo are trademarks of the Great Circle Mapper.
All other trademarks mentioned herein belong to their respective owners.
Please see credits for attibutions and further copyright information.

  Follow gcmap on Facebook Follow gcmap on Twitter Follow gcmap on Google+ GCmap on LinkedIn

hCard Microformat

Geo Microformat